Startpagina
METAR-TAF:

METAR-TAF

Vliegvelden :

Oxford, Engeland

breedte: 51-50-13N, lengte: 1-19-12W, hoogte: 82 m

Actueel weer

Dit bericht is 15 minuten geleden gemaakt, om 16:50 UTC
Wind 6 kt uit het zuidwesten, variërend tussen het zuiden en het westen
Temperatuur 25°C
Vochtigheid 44%
Druk 1008 hPa
Zicht 10 km of meer
geen wolken onder 1500 m en geen cumulonimbus

METAR: EGTK 261650Z 23006KT 170V270 CAVOK 25/12 Q1008

Tijdstip: 18:05 (17:05 UTC)

Verwachting

Dit bericht is 2 uur en het 44 minuten geleden gemaakt, om 14:21 UTC
Verwachting geldig van 26 om 15 UTC tot 26 om 22 UTC
Wind 5 kt uit het westen
Zicht 10 km of meer
Verspreide wolken op 4000 ft

TAF: EGTK 261421Z 2615/2622 26005KT 9999 SCT040

Waarnemingen en weersverwachtingen van meer dan 4000 vliegvelden (METAR en TAF).

De beschikbare stations zijn de gele en rode punten op de kaart.

Ga met uw muis naar het station om de naam te zien.

Klik dan om waarnemingen en weersverwachtingen te zien.

kaart wijzigen: klik op de groene knoppen met een zwart kruis om in te zoomen, op de groene knop met een streepje om uit te zoomen of op de groene pijlen voor aangrenzende kaarten.


METAR-TAF: